Time,TemperatureF,DewpointF,PressureIn,WindDirection,WindDirectionDegrees,WindSpeedMPH,WindSpeedGustMPH,Humidity,HourlyPrecipIn,Conditions,Clouds,dailyrainin,SoftwareType,DateUTC
2013-10-21 00:11:00,52.1,48.0,29.93,NNW,335,0.0,1.0,86,0.00,,,0.00,weatherlink.com 1.10,2013-10-21 05:11:00,
2013-10-21 00:26:00,50.9,48.0,29.93,NNW,335,1.0,200.0,88,0.00,,,0.00,weatherlink.com 1.10,2013-10-21 05:26:00,
2013-10-21 00:41:00,50.7,48.0,29.93,NNW,335,0.0,1.0,89,0.00,,,0.00,weatherlink.com 1.10,2013-10-21 05:41:00,
2013-10-21 00:56:00,50.6,48.0,29.93,NNW,335,0.0,1.0,91,0.00,,,0.00,weatherlink.com 1.10,2013-10-21 05:56:00,
2013-10-21 01:11:00,51.5,49.0,29.92,NNW,334,0.0,1.0,90,0.00,,,0.00,weatherlink.com 1.10,2013-10-21 06:11:00,
2013-10-21 01:26:00,53.4,49.0,29.91,SW,221,0.0,2.0,85,0.00,,,0.00,weatherlink.com 1.10,2013-10-21 06:26:00,
2013-10-21 01:41:00,54.4,49.0,29.91,SW,229,0.0,2.0,83,0.00,,,0.00,weatherlink.com 1.10,2013-10-21 06:41:00,
2013-10-21 01:56:00,56.5,50.0,29.92,SSW,211,2.0,5.0,78,0.00,,,0.00,weatherlink.com 1.10,2013-10-21 06:56:00,
2013-10-21 02:11:00,57.8,51.0,29.91,SSE,160,2.0,4.0,77,0.00,,,0.00,weatherlink.com 1.10,2013-10-21 07:11:00,
2013-10-21 02:26:00,57.8,51.0,29.92,SE,124,1.0,7.0,78,0.00,,,0.00,weatherlink.com 1.10,2013-10-21 07:26:00,
2013-10-21 02:41:00,57.6,51.0,29.92,SSW,210,0.0,4.0,79,0.00,,,0.00,weatherlink.com 1.10,2013-10-21 07:41:00,
2013-10-21 02:56:00,57.7,52.0,29.91,NNE,18,0.0,1.0,81,0.00,,,0.00,weatherlink.com 1.10,2013-10-21 07:56:00,
2013-10-21 03:11:00,57.7,53.0,29.91,North,4,0.0,1.0,83,0.00,,,0.00,weatherlink.com 1.10,2013-10-21 08:11:00,
2013-10-21 03:26:00,57.9,54.0,29.91,SSW,205,0.0,2.0,85,0.00,,,0.00,weatherlink.com 1.10,2013-10-21 08:26:00,
2013-10-21 03:41:00,58.7,55.0,29.91,SSE,153,0.0,1.0,86,0.00,,,0.00,weatherlink.com 1.10,2013-10-21 08:41:00,
2013-10-21 03:56:00,58.6,55.0,29.91,SW,214,1.0,4.0,89,0.00,,,0.00,weatherlink.com 1.10,2013-10-21 08:56:00,
2013-10-21 04:11:00,59.4,56.0,29.90,ESE,120,0.0,2.0,88,0.00,,,0.00,weatherlink.com 1.10,2013-10-21 09:11:00,
2013-10-21 04:26:00,58.8,55.0,29.90,SE,138,3.0,4.0,88,0.00,,,0.00,weatherlink.com 1.10,2013-10-21 09:26:00,
2013-10-21 04:41:00,59.4,56.0,29.90,SSE,149,0.0,3.0,89,0.00,,,0.00,weatherlink.com 1.10,2013-10-21 09:41:00,
2013-10-21 04:56:00,59.9,57.0,29.89,SSW,198,0.0,4.0,90,0.00,,,0.00,weatherlink.com 1.10,2013-10-21 09:56:00,
2013-10-21 05:11:00,60.4,58.0,29.89,SSW,198,0.0,91.0,90,0.00,,,0.00,weatherlink.com 1.10,2013-10-21 10:11:00,
2013-10-21 05:26:00,60.4,58.0,29.89,SSW,211,0.0,1.0,91,0.00,,,0.00,weatherlink.com 1.10,2013-10-21 10:26:00,
2013-10-21 05:41:00,60.5,58.0,29.90,SW,214,0.0,3.0,92,0.00,,,0.00,weatherlink.com 1.10,2013-10-21 10:41:00,
2013-10-21 05:56:00,60.8,59.0,29.90,SSW,195,1.0,4.0,92,0.00,,,0.00,weatherlink.com 1.10,2013-10-21 10:56:00,
2013-10-21 06:11:00,60.9,58.0,29.90,ENE,63,0.0,2.0,91,0.00,,,0.00,weatherlink.com 1.10,2013-10-21 11:11:00,
2013-10-21 06:26:00,60.8,58.0,29.90,ENE,58,0.0,1.0,91,0.00,,,0.00,weatherlink.com 1.10,2013-10-21 11:26:00,
2013-10-21 06:41:00,60.7,58.0,29.90,NE,45,1.0,2.0,92,0.00,,,0.00,weatherlink.com 1.10,2013-10-21 11:41:00,
2013-10-21 06:56:00,60.7,58.0,29.90,SSW,203,1.0,3.0,91,0.00,,,0.00,weatherlink.com 1.10,2013-10-21 11:56:00,
2013-10-21 07:11:00,61.2,59.0,29.89,SE,136,1.0,-999.0,91,-99.99,,,0.00,weatherlink.com 1.10,2013-10-21 12:11:00,
2013-10-21 07:26:00,61.4,59.0,29.90,SSW,203,0.0,4.0,91,0.00,,,0.00,weatherlink.com 1.10,2013-10-21 12:26:00,
2013-10-21 07:41:00,62.3,60.0,29.90,SE,142,2.0,7.0,92,0.00,,,0.00,weatherlink.com 1.10,2013-10-21 12:41:00,
2013-10-21 07:56:00,62.6,60.0,29.91,SW,226,0.0,3.0,91,0.00,,,0.00,weatherlink.com 1.10,2013-10-21 12:56:00,
2013-10-21 08:11:00,62.8,60.0,29.91,SE,145,2.0,4.0,91,0.00,,,0.00,weatherlink.com 1.10,2013-10-21 13:11:00,
2013-10-21 08:27:00,63.0,60.0,29.91,SW,214,0.0,3.0,91,0.00,,,0.00,weatherlink.com 1.10,2013-10-21 13:27:00,
2013-10-21 08:41:00,62.7,60.0,29.91,SSW,205,0.0,1.0,91,0.00,,,0.00,weatherlink.com 1.10,2013-10-21 13:41:00,
2013-10-21 08:56:00,62.6,60.0,29.91,SSW,205,0.0,0.0,92,0.00,,,0.00,weatherlink.com 1.10,2013-10-21 13:56:00,
2013-10-21 09:12:00,62.9,61.0,29.92,SSE,158,1.0,2.0,93,0.00,,,0.00,weatherlink.com 1.10,2013-10-21 14:12:00,
2013-10-21 09:27:00,63.6,62.0,29.92,South,177,3.0,4.0,93,0.00,,,0.00,weatherlink.com 1.10,2013-10-21 14:27:00,
2013-10-21 09:42:00,64.4,62.0,29.93,ESE,120,2.0,7.0,91,0.00,,,0.00,weatherlink.com 1.10,2013-10-21 14:42:00,
2013-10-21 09:57:00,65.3,62.0,29.93,South,180,5.0,7.0,90,0.00,,,0.00,weatherlink.com 1.10,2013-10-21 14:57:00,
2013-10-21 10:12:00,66.3,63.0,29.93,SW,214,3.0,8.0,88,0.00,,,0.00,weatherlink.com 1.10,2013-10-21 15:12:00,
2013-10-21 10:27:00,66.8,63.0,29.93,WSW,238,2.0,8.0,87,0.00,,,0.00,weatherlink.com 1.10,2013-10-21 15:27:00,
2013-10-21 10:42:00,67.6,63.0,29.93,SSW,212,2.0,8.0,86,0.00,,,0.00,weatherlink.com 1.10,2013-10-21 15:42:00,
2013-10-21 10:57:00,68.0,64.0,29.93,SW,229,6.0,8.0,86,0.00,,,0.00,weatherlink.com 1.10,2013-10-21 15:57:00,
2013-10-21 11:12:00,68.7,64.0,29.93,WSW,237,10.0,10.0,85,0.00,,,0.00,weatherlink.com 1.10,2013-10-21 16:12:00,
2013-10-21 11:27:00,69.7,65.0,29.93,WSW,246,1.0,8.0,84,0.00,,,0.00,weatherlink.com 1.10,2013-10-21 16:27:00,
2013-10-21 11:42:00,70.6,65.0,29.93,WSW,245,5.0,9.0,81,0.00,,,0.00,weatherlink.com 1.10,2013-10-21 16:42:00,
2013-10-21 11:57:00,71.1,65.0,29.93,SW,222,4.0,8.0,80,0.00,,,0.00,weatherlink.com 1.10,2013-10-21 16:57:00,
2013-10-21 12:12:00,70.9,64.0,29.93,WSW,248,4.0,7.0,80,0.00,,,0.00,weatherlink.com 1.10,2013-10-21 17:12:00,
2013-10-21 12:27:00,71.3,65.0,29.94,WSW,243,1.0,5.0,79,0.00,,,0.00,weatherlink.com 1.10,2013-10-21 17:27:00,
2013-10-21 12:42:00,71.9,65.0,29.93,SW,218,1.0,5.0,79,0.00,,,0.00,weatherlink.com 1.10,2013-10-21 17:42:00,
2013-10-21 12:57:00,74.4,66.0,29.93,WSW,239,4.0,5.0,74,0.00,,,0.00,weatherlink.com 1.10,2013-10-21 17:57:00,
2013-10-21 13:12:00,76.4,66.0,29.92,SW,231,2.0,7.0,69,0.00,,,0.00,weatherlink.com 1.10,2013-10-21 18:12:00,
2013-10-21 13:27:00,76.3,65.0,29.91,SSW,207,2.0,6.0,69,0.00,,,0.00,weatherlink.com 1.10,2013-10-21 18:27:00,
2013-10-21 13:42:00,76.4,65.0,29.91,SSW,192,3.0,7.0,67,0.00,,,0.00,weatherlink.com 1.10,2013-10-21 18:42:00,
2013-10-21 13:57:00,75.6,64.0,29.90,SSW,213,1.0,6.0,67,0.00,,,0.00,weatherlink.com 1.10,2013-10-21 18:57:00,
2013-10-21 14:12:00,76.7,64.0,29.89,WSW,239,1.0,5.0,66,0.00,,,0.00,weatherlink.com 1.10,2013-10-21 19:12:00,
2013-10-21 14:27:00,75.8,65.0,29.88,East,99,1.0,4.0,69,0.00,,,0.00,weatherlink.com 1.10,2013-10-21 19:27:00,
2013-10-21 14:42:00,75.5,65.0,29.88,NE,56,4.0,5.0,69,0.00,,,0.00,weatherlink.com 1.10,2013-10-21 19:42:00,
2013-10-21 14:57:00,76.3,65.0,29.87,SSW,203,0.0,3.0,68,0.00,,,0.00,weatherlink.com 1.10,2013-10-21 19:57:00,
2013-10-21 15:12:00,79.9,65.0,29.86,SW,233,4.0,4.0,60,0.00,,,0.00,weatherlink.com 1.10,2013-10-21 20:12:00,
2013-10-21 15:27:00,80.9,64.0,29.86,NW,316,1.0,3.0,57,0.00,,,0.00,weatherlink.com 1.10,2013-10-21 20:27:00,
2013-10-21 15:42:00,80.8,64.0,29.86,SSW,207,2.0,6.0,57,0.00,,,0.00,weatherlink.com 1.10,2013-10-21 20:42:00,
2013-10-21 15:57:00,78.9,64.0,29.87,WNW,302,5.0,11.0,60,0.00,,,0.00,weatherlink.com 1.10,2013-10-21 20:57:00,
2013-10-21 16:12:00,76.8,64.0,29.87,NNE,16,8.0,11.0,64,0.00,,,0.00,weatherlink.com 1.10,2013-10-21 21:12:00,
2013-10-21 16:27:00,76.1,64.0,29.87,NW,323,7.0,14.0,66,0.00,,,0.00,weatherlink.com 1.10,2013-10-21 21:27:00,
2013-10-21 16:42:00,76.0,64.0,29.87,NNW,338,5.0,9.0,66,0.00,,,0.00,weatherlink.com 1.10,2013-10-21 21:42:00,
2013-10-21 16:57:00,75.4,62.0,29.88,NW,311,8.0,15.0,64,0.00,,,0.00,weatherlink.com 1.10,2013-10-21 21:57:00,
2013-10-21 17:12:00,74.3,62.0,29.88,NW,304,6.0,15.0,66,0.00,,,0.00,weatherlink.com 1.10,2013-10-21 22:12:00,
2013-10-21 17:28:00,74.3,62.0,29.88,NW,307,7.0,13.0,65,0.00,,,0.00,weatherlink.com 1.10,2013-10-21 22:28:00,
2013-10-21 17:43:00,73.5,61.0,29.88,NNE,29,6.0,12.0,66,0.00,,,0.00,weatherlink.com 1.10,2013-10-21 22:43:00,
2013-10-21 17:58:00,72.8,61.0,29.89,NNW,329,9.0,14.0,66,0.00,,,0.00,weatherlink.com 1.10,2013-10-21 22:58:00,
2013-10-21 18:13:00,72.2,61.0,29.89,NNE,27,7.0,11.0,67,0.00,,,0.00,weatherlink.com 1.10,2013-10-21 23:13:00,
2013-10-21 18:28:00,71.3,60.0,29.90,NW,310,5.0,11.0,68,0.00,,,0.00,weatherlink.com 1.10,2013-10-21 23:28:00,
2013-10-21 18:43:00,70.0,59.0,29.91,WNW,293,7.0,14.0,68,0.00,,,0.00,weatherlink.com 1.10,2013-10-21 23:43:00,
2013-10-21 18:58:00,68.7,58.0,29.92,North,4,8.0,14.0,68,0.00,,,0.00,weatherlink.com 1.10,2013-10-21 23:58:00,
2013-10-21 19:13:00,67.3,57.0,29.93,WNW,284,3.0,10.0,70,0.00,,,0.00,weatherlink.com 1.10,2013-10-22 00:13:00,
2013-10-21 19:28:00,66.3,57.0,29.93,NW,311,5.0,8.0,72,0.00,,,0.00,weatherlink.com 1.10,2013-10-22 00:28:00,
2013-10-21 19:43:00,65.6,57.0,29.94,NNE,14,3.0,6.0,73,0.00,,,0.00,weatherlink.com 1.10,2013-10-22 00:43:00,
2013-10-21 19:58:00,65.1,57.0,29.95,NW,304,3.0,6.0,75,0.00,,,0.00,weatherlink.com 1.10,2013-10-22 00:58:00,
2013-10-21 20:13:00,64.5,56.0,29.95,WNW,293,0.0,7.0,75,0.00,,,0.00,weatherlink.com 1.10,2013-10-22 01:13:00,
2013-10-21 20:28:00,63.8,56.0,29.96,NW,304,2.0,5.0,76,0.00,,,0.00,weatherlink.com 1.10,2013-10-22 01:28:00,
2013-10-21 20:43:00,63.4,56.0,29.97,NW,304,4.0,7.0,76,0.00,,,0.00,weatherlink.com 1.10,2013-10-22 01:43:00,
2013-10-21 20:58:00,63.3,56.0,29.97,NW,317,2.0,11.0,76,0.00,,,0.00,weatherlink.com 1.10,2013-10-22 01:58:00,
2013-10-21 21:13:00,62.9,55.0,29.98,NW,304,3.0,14.0,76,0.00,,,0.00,weatherlink.com 1.10,2013-10-22 02:13:00,
2013-10-21 21:28:00,62.0,54.0,29.99,NW,311,4.0,12.0,76,0.00,,,0.00,weatherlink.com 1.10,2013-10-22 02:28:00,
2013-10-21 21:43:00,61.2,54.0,29.99,NW,311,2.0,7.0,77,0.00,,,0.00,weatherlink.com 1.10,2013-10-22 02:43:00,
2013-10-21 21:58:00,60.5,53.0,29.99,NW,309,8.0,13.0,77,0.00,,,0.00,weatherlink.com 1.10,2013-10-22 02:58:00,
2013-10-21 22:13:00,59.9,53.0,30.00,NNW,330,3.0,9.0,78,0.00,,,0.00,weatherlink.com 1.10,2013-10-22 03:13:00,
2013-10-21 22:28:00,59.3,53.0,30.01,West,280,5.0,13.0,79,0.00,,,0.00,weatherlink.com 1.10,2013-10-22 03:28:00,
2013-10-21 22:43:00,58.8,52.0,30.02,NW,309,6.0,9.0,79,0.00,,,0.00,weatherlink.com 1.10,2013-10-22 03:43:00,
2013-10-21 22:58:00,58.3,52.0,30.03,NW,312,3.0,8.0,80,0.00,,,0.00,weatherlink.com 1.10,2013-10-22 03:58:00,
2013-10-21 23:13:00,57.8,52.0,30.03,NW,316,2.0,9.0,81,0.00,,,0.00,weatherlink.com 1.10,2013-10-22 04:13:00,
2013-10-21 23:28:00,57.5,52.0,30.04,NNE,13,5.0,14.0,81,0.00,,,0.00,weatherlink.com 1.10,2013-10-22 04:28:00,
2013-10-21 23:43:00,57.2,52.0,30.04,NNE,22,8.0,12.0,82,0.00,,,0.00,weatherlink.com 1.10,2013-10-22 04:43:00,
2013-10-21 23:58:00,56.8,52.0,30.04,WNW,303,7.0,12.0,83,0.00,,,0.00,weatherlink.com 1.10,2013-10-22 04:58:00,